B21 EFJY-EFJY

Flight info

Callsign B21
Flight time 0h 25m
Altitude 3000
Route POHJA JYTA TC
Aircraft HAWK/M-SDGIRY/C

Departure

Time 2026-04-26 04:32
Airport Jyväskylä Airport (EFJY)

Arrival

Time 2026-04-26 04:58
Airport Jyväskylä Airport (EFJY)
Time Latitude Longitude Altitude Speed Heading
2026-04-26 04:09 62.40367 25.65578 466 ft 0 kts 84°
2026-04-26 04:11 62.40368 25.65578 466 ft 0 kts 84°
2026-04-26 04:14 62.40368 25.65579 466 ft 0 kts 83°
2026-04-26 04:23 62.40368 25.65581 466 ft 1 kts 82°
2026-04-26 04:23 62.40367 25.65603 465 ft 3 kts 111°
2026-04-26 04:23 62.40358 25.65616 465 ft 2 kts 165°
2026-04-26 04:23 62.40336 25.65625 465 ft 4 kts 157°
2026-04-26 04:24 62.40316 25.65691 464 ft 8 kts 109°
2026-04-26 04:24 62.40295 25.65829 462 ft 11 kts 106°
2026-04-26 04:24 62.40304 25.65968 463 ft 8 kts 52°
2026-04-26 04:24 62.40340 25.66048 468 ft 7 kts 44°
2026-04-26 04:25 62.40372 25.66116 472 ft 9 kts 45°
2026-04-26 04:25 62.40399 25.66236 477 ft 10 kts 120°
2026-04-26 04:25 62.40335 25.66386 475 ft 15 kts 134°
2026-04-26 04:25 62.40266 25.66540 475 ft 14 kts 131°
2026-04-26 04:26 62.40196 25.66698 476 ft 14 kts 131°
2026-04-26 04:26 62.40127 25.66848 476 ft 15 kts 134°
2026-04-26 04:26 62.40057 25.67005 475 ft 15 kts 134°
2026-04-26 04:26 62.39980 25.67183 472 ft 17 kts 134°
2026-04-26 04:27 62.39896 25.67367 470 ft 17 kts 132°
2026-04-26 04:27 62.39815 25.67549 469 ft 17 kts 136°
2026-04-26 04:27 62.39727 25.67746 467 ft 19 kts 137°
2026-04-26 04:27 62.39632 25.67951 460 ft 19 kts 129°
2026-04-26 04:28 62.39547 25.68174 455 ft 19 kts 124°
2026-04-26 04:28 62.39498 25.68389 458 ft 14 kts 121°
2026-04-26 04:28 62.39463 25.68525 462 ft 6 kts 111°
2026-04-26 04:28 62.39447 25.68580 464 ft 4 kts 131°
2026-04-26 04:29 62.39432 25.68645 465 ft 10 kts 105°
2026-04-26 04:29 62.39409 25.68831 466 ft 12 kts 64°
2026-04-26 04:29 62.39454 25.68942 465 ft 3 kts
2026-04-26 04:29 62.39458 25.68938 465 ft 0 kts 315°
2026-04-26 04:31 62.39506 25.68835 466 ft 43 kts 315°
2026-04-26 04:31 62.39942 25.67835 487 ft 135 kts 317°
2026-04-26 04:32 62.40786 25.66051 949 ft 202 kts 319°
2026-04-26 04:32 62.42063 25.64193 1318 ft 243 kts 340°
2026-04-26 04:32 62.43681 25.63480 1489 ft 229 kts 355°
2026-04-26 04:32 62.45225 25.63293 1534 ft 217 kts 359°
2026-04-26 04:33 62.46719 25.63197 1454 ft 212 kts 359°
2026-04-26 04:33 62.48193 25.63038 1405 ft 217 kts 356°
2026-04-26 04:33 62.49750 25.62848 1148 ft 232 kts 358°
2026-04-26 04:33 62.51365 25.62572 1294 ft 229 kts 354°
2026-04-26 04:34 62.52977 25.62558 1253 ft 234 kts 359°
2026-04-26 04:34 62.54634 25.62639 1158 ft 241 kts
2026-04-26 04:34 62.56312 25.62959 1186 ft 242 kts
2026-04-26 04:34 62.57999 25.63316 1112 ft 248 kts
2026-04-26 04:35 62.59688 25.63450 1398 ft 238 kts 356°
2026-04-26 04:35 62.61299 25.63823 1731 ft 237 kts 24°
2026-04-26 04:35 62.62398 25.66469 2134 ft 246 kts 64°
2026-04-26 04:35 62.62400 25.70247 1980 ft 264 kts 96°
2026-04-26 04:36 62.61935 25.73999 2218 ft 252 kts 102°
2026-04-26 04:36 62.61031 25.77317 2348 ft 264 kts 127°
2026-04-26 04:36 62.59661 25.79962 2908 ft 264 kts 134°
2026-04-26 04:36 62.58235 25.82523 3006 ft 267 kts 134°
2026-04-26 04:37 62.56779 25.85097 3062 ft 273 kts 135°
2026-04-26 04:37 62.55272 25.87616 3366 ft 273 kts 137°
2026-04-26 04:37 62.53796 25.89996 3665 ft 254 kts 136°
2026-04-26 04:37 62.52420 25.92261 3438 ft 251 kts 136°
2026-04-26 04:38 62.51027 25.94640 3032 ft 226 kts 92°
2026-04-26 04:38 62.51778 25.95181 2723 ft 185 kts 324°
2026-04-26 04:38 62.52811 25.93369 2336 ft 201 kts 336°
2026-04-26 04:38 62.54006 25.91978 3030 ft 201 kts 340°
2026-04-26 04:39 62.55326 25.90733 3126 ft 221 kts 343°
2026-04-26 04:39 62.56776 25.90306 3152 ft 209 kts 12°
2026-04-26 04:39 62.57960 25.92055 3195 ft 219 kts 49°
2026-04-26 04:39 62.58403 25.95453 2844 ft 253 kts 88°
2026-04-26 04:40 62.57690 25.99041 2840 ft 274 kts 126°
2026-04-26 04:40 62.55999 26.00857 3184 ft 281 kts 173°
2026-04-26 04:40 62.54162 25.99654 2999 ft 285 kts 229°
2026-04-26 04:40 62.53312 25.95967 2714 ft 278 kts 259°
2026-04-26 04:41 62.52660 25.91902 1944 ft 288 kts 255°
2026-04-26 04:41 62.51544 25.88331 1281 ft 300 kts 202°
2026-04-26 04:41 62.51643 25.85832 1098 ft 211 kts 333°
2026-04-26 04:41 62.52864 25.84104 983 ft 209 kts 329°
2026-04-26 04:42 62.54178 25.82716 696 ft 214 kts 315°
2026-04-26 04:42 62.55232 25.80397 673 ft 218 kts 320°
2026-04-26 04:42 62.56358 25.78011 907 ft 231 kts 317°
2026-04-26 04:42 62.57436 25.75424 976 ft 229 kts 321°
2026-04-26 04:43 62.58658 25.73272 1151 ft 224 kts 322°
2026-04-26 04:43 62.59604 25.70519 1210 ft 232 kts 316°
2026-04-26 04:43 62.60756 25.68180 1267 ft 228 kts 285°
2026-04-26 04:43 62.61303 25.65123 1336 ft 229 kts 310°
2026-04-26 04:44 62.61238 25.62324 1289 ft 242 kts 213°
2026-04-26 04:44 62.59533 25.61168 1362 ft 262 kts 190°
2026-04-26 04:44 62.57751 25.61649 1433 ft 258 kts 166°
2026-04-26 04:44 62.55986 25.62344 1506 ft 257 kts 173°
2026-04-26 04:45 62.54149 25.62718 1462 ft 271 kts 175°
2026-04-26 04:45 62.52322 25.63359 1451 ft 260 kts 166°
2026-04-26 04:45 62.50604 25.64429 1469 ft 253 kts 165°
2026-04-26 04:45 62.48998 25.65833 1410 ft 247 kts 153°
2026-04-26 04:46 62.47951 25.66863 1264 ft 253 kts 155°
2026-04-26 04:46 62.46236 25.67731 1111 ft 257 kts 181°
2026-04-26 04:46 62.44518 25.66988 1301 ft 246 kts 194°
2026-04-26 04:46 62.42886 25.67202 1262 ft 232 kts 156°
2026-04-26 04:47 62.41392 25.70123 1332 ft 205 kts 127°
2026-04-26 04:47 62.40402 25.72366 1354 ft 210 kts 128°
2026-04-26 04:47 62.39405 25.74693 1445 ft 213 kts 134°
2026-04-26 04:47 62.38481 25.75369 1516 ft 214 kts 184°
2026-04-26 04:48 62.37410 25.72224 1010 ft 119 kts 343°
2026-04-26 04:48 62.38156 25.71706 816 ft 108 kts 329°
2026-04-26 04:48 62.38707 25.70584 619 ft 111 kts 315°
2026-04-26 04:49 62.39248 25.69385 484 ft 112 kts 316°
2026-04-26 04:49 62.39717 25.68346 466 ft 85 kts 311°
2026-04-26 04:49 62.40253 25.67115 602 ft 145 kts 315°
2026-04-26 04:49 62.41035 25.65397 1014 ft 158 kts 329°
2026-04-26 04:50 62.42028 25.65385 1351 ft 158 kts 26°
2026-04-26 04:50 62.42942 25.66966 1376 ft 176 kts 38°
2026-04-26 04:50 62.43180 25.69492 1480 ft 201 kts 110°
2026-04-26 04:50 62.42166 25.71763 1511 ft 213 kts 133°
2026-04-26 04:51 62.41062 25.73967 1540 ft 218 kts 129°
2026-04-26 04:51 62.39995 25.76307 1508 ft 220 kts 127°
2026-04-26 04:51 62.38857 25.78506 1617 ft 222 kts 152°
2026-04-26 04:51 62.37445 25.78054 1584 ft 204 kts 227°
2026-04-26 04:52 62.36645 25.75780 1454 ft 180 kts 267°
2026-04-26 04:52 62.37060 25.73950 1172 ft 128 kts 327°
2026-04-26 04:52 62.37729 25.72772 837 ft 116 kts 314°
2026-04-26 04:52 62.38233 25.71623 719 ft 98 kts 320°
2026-04-26 04:53 62.38710 25.70556 595 ft 103 kts 319°
2026-04-26 04:53 62.39205 25.69477 465 ft 92 kts 319°
2026-04-26 04:53 62.39665 25.68484 471 ft 120 kts 316°
2026-04-26 04:53 62.40411 25.66770 853 ft 193 kts 314°
2026-04-26 04:54 62.41314 25.64741 1254 ft 178 kts 331°
2026-04-26 04:54 62.42436 25.64950 1578 ft 181 kts 34°
2026-04-26 04:54 62.43355 25.66895 1450 ft 193 kts 45°
2026-04-26 04:54 62.43001 25.69453 1362 ft 217 kts 140°
2026-04-26 04:55 62.41839 25.71419 1388 ft 214 kts 137°
2026-04-26 04:55 62.40657 25.73328 1220 ft 212 kts 141°
2026-04-26 04:55 62.39540 25.75269 1266 ft 198 kts 134°
2026-04-26 04:55 62.38433 25.76940 1247 ft 193 kts 168°
2026-04-26 04:56 62.37294 25.76055 1063 ft 168 kts 249°
2026-04-26 04:56 62.37245 25.73993 1022 ft 119 kts 304°
2026-04-26 04:56 62.37737 25.72714 879 ft 107 kts 319°
2026-04-26 04:56 62.38237 25.71616 726 ft 100 kts 316°
2026-04-26 04:57 62.38724 25.70537 628 ft 100 kts 317°
2026-04-26 04:57 62.39203 25.69486 487 ft 96 kts 317°
2026-04-26 04:57 62.39619 25.68574 464 ft 75 kts 316°
2026-04-26 04:57 62.39932 25.67865 471 ft 54 kts 314°
2026-04-26 04:58 62.40080 25.67486 472 ft 13 kts 267°
2026-04-26 04:58 62.40055 25.67386 474 ft 5 kts 228°
2026-04-26 04:58 62.40032 25.67336 475 ft 5 kts 225°
2026-04-26 04:58 62.40000 25.67271 473 ft 8 kts 224°
2026-04-26 04:59 62.39989 25.67162 472 ft 8 kts 310°
2026-04-26 04:59 62.40023 25.67076 473 ft 7 kts 310°
2026-04-26 04:59 62.40053 25.67018 475 ft 4 kts 316°
2026-04-26 04:59 62.40069 25.66978 475 ft 4 kts 312°
2026-04-26 05:00 62.40110 25.66890 475 ft 12 kts 313°
2026-04-26 05:00 62.40178 25.66736 477 ft 13 kts 317°
2026-04-26 05:00 62.40244 25.66589 475 ft 14 kts 313°
2026-04-26 05:00 62.40310 25.66440 475 ft 14 kts 313°
2026-04-26 05:01 62.40385 25.66276 476 ft 15 kts 315°
2026-04-26 05:01 62.40386 25.66145 473 ft 11 kts 224°
2026-04-26 05:01 62.40307 25.65980 464 ft 20 kts 226°
2026-04-26 05:01 62.40206 25.65769 461 ft 18 kts 231°
2026-04-26 05:02 62.40211 25.65673 463 ft 3 kts 278°
2026-04-26 05:02 62.40204 25.65636 463 ft 0 kts 232°